Station info - map view · info · telemetry · weather · raw · status · beacons · messages · bulletins · browse · moving · my account
Callsign, ship name or locator: Clear       
It is possible to search using wildcards (*?) after a prefix. Example: OH*
APRS station W0WFO-9 - show graphs
Map loading...
Comment: 145.310MHz
Mic-E message: Special
Location: 40°01.77' N 104°49.36' W - locator DN70OA17GB - show map - static map
3.8 miles South bearing 188° from Fort Lupton, Weld County, Colorado, United States [?]
7.3 miles Southeast bearing 122° from Dacono, Weld County, Colorado, United States
20.7 miles North bearing 1° from Aurora, Adams County, Colorado, United States
21.8 miles Northeast bearing 23° from Denver, Denver County, Colorado, United States
Last position: 2021-04-03 22:36:45 EDT (14d 22h2m ago)
2021-04-03 20:36:45 MDT local time at Fort Lupton, United States [?]
Altitude: 4941 ft
Course: 269°
Speed: 35 MPH
Device: Yaesu: FTM-400DR (rig)
Last path: W0WFO-9>4P0QWW via W0UPS-15,WIDE1,NCFPD,WIDE2,qAR,KD0SFY (good)
Positions stored: 7619
Stations near current position of W0WFO-9 - show more
callsign distance last heard - EDT      callsign distance last heard - EDT
FW01332.6 miles 311°2021-04-18 20:30:18 FW01924.2 miles 72°2021-04-18 20:37:04
FW25084.5 miles 50°2021-04-18 20:35:02 G7LWN-N4.6 miles 123°2021-04-18 20:23:47
W0SBS B5.6 miles 97°2021-03-29 00:32:14 W0SBS-B5.6 miles 97°2021-03-29 00:32:24
KE0PHM-95.7 miles 244°2021-04-09 19:17:55 EW87145.7 miles 221°2021-04-18 20:35:13
CW60876.7 miles 306°2021-04-18 20:35:43 KC0QIS7.2 miles 309°2021-04-16 18:19:26
K0RGS7.6 miles 228°2021-04-04 13:27:19 KF0DZG-98.4 miles 256°2021-04-18 11:12:21
KE0ZFO-98.5 miles 256°2021-04-17 20:04:34 W0LTA8.5 miles 315°2021-04-18 20:34:25
WF9F B8.7 miles 231°2021-04-18 20:23:56 WF9F-B8.7 miles 231°2021-04-18 20:24:06
K0MKH-N8.9 miles 231°2021-04-18 20:34:34 N0SPB-59.0 miles 171°2021-04-18 10:46:07
N7CTM-99.0 miles 322°2021-04-17 18:40:33 KE0PMI-149.2 miles 214°2021-04-13 23:07:12
Stations which heard W0WFO-9 directly on radio –
callsign pkts first heard - EDT last heard longest (tx => rx) longest at - EDT
UBUTTE 7 2021-04-01 23:02:39 2021-04-03 07:54:19 DM58CW > DM58QN 67.8 miles 111° 2021-04-03 07:32:49
BAXTER 12 2021-04-03 07:09:54 2021-04-03 08:11:24 DM58EO > DM59MO 76.3 miles 29° 2021-04-03 07:11:40
SUNLGT 10 2021-04-03 09:20:09 2021-04-03 10:17:36 DM69OQ > DM69HK 36.7 miles 241° 2021-04-03 10:17:36
GRAND 18 2021-04-03 08:15:10 2021-04-03 09:13:23 DM59MF > DM59VC 40.0 miles 103° 2021-04-03 08:15:10
BALD 16 2021-03-31 21:17:08 2021-04-03 07:48:33 DM58CS > DM58IM 29.2 miles 127° 2021-04-03 07:22:50
VAILMT 15 2021-04-03 10:18:19 2021-04-03 11:05:17 DM69OQ > DM69TO 23.1 miles 104° 2021-04-03 10:18:19
ABAJO 6 2021-04-03 07:33:20 2021-04-03 07:56:35 DM59IA > DM57GU 82.3 miles 186° 2021-04-03 07:56:35
K7YI-4 98 2021-04-01 16:47:30 2021-04-03 07:36:15 DM58GM > DM49JF 103.8 miles 299° 2021-04-02 23:22:00
ANVIL 8 2021-04-03 08:59:54 2021-04-03 09:38:31 DM59UF > DM69AM 26.8 miles 38° 2021-04-03 08:59:54
RBERRY 1 2021-04-03 08:54:07 2021-04-03 08:54:07 DM59UD > DM58VH 58.1 miles 174° 2021-04-03 08:54:07
CLIMAX 3 2021-04-03 10:51:04 2021-04-03 10:57:02 DM69WM > DM69VJ 11.2 miles 198° 2021-04-03 10:57:02
SWANMT 5 2021-04-03 10:53:16 2021-04-03 11:03:21 DM69VM > DM69XO 10.2 miles 58° 2021-04-03 10:53:16
DTSERO 10 2021-04-03 09:51:55 2021-04-03 10:32:29 DM69SO > DM69JP 37.1 miles 275° 2021-04-03 10:32:29
MAGMTN 1 2021-04-03 09:23:58 2021-04-03 09:23:58 DM69BM > DN60AE 47.6 miles 357° 2021-04-03 09:23:58
DOLLAR 3 2021-04-02 23:25:16 2021-04-03 07:00:30 DM58FN > DM67AX 94.0 miles 114° 2021-04-03 07:00:30
N4YRE 3 2021-04-03 11:44:37 2021-04-03 21:57:30 DM79IR > DM79NQ 24.2 miles 97° 2021-04-03 11:44:37
SANDFL 450 2021-03-31 20:02:08 2021-04-03 07:08:58 DM58GM > DM58FN 5.2 miles 324° 2021-04-02 23:22:32
ERIDGE 4 2021-04-03 10:59:48 2021-04-03 11:06:45 DM69XP > DM69SU 25.1 miles 300° 2021-04-03 11:06:45
AC0XW-1 1 2021-04-03 21:58:39 2021-04-03 21:58:39 DM79LT > DM79LT 2.0 miles 351° 2021-04-03 21:58:39
W0ARP 1 2021-04-03 11:46:55 2021-04-03 11:46:55 DM79IQ > DM79QL 35.9 miles 114° 2021-04-03 11:46:55
K5RHD-10 58 2021-04-03 11:48:56 2021-04-03 21:49:20 DM79JQ > DM79KU 12.2 miles 32° 2021-04-03 11:48:56
K0NTS-5 59 2021-04-03 11:38:01 2021-04-03 22:34:41 DN70OA > DM79GR 39.3 miles 237° 2021-04-03 22:34:41
AI0J-10 6 2021-04-03 12:34:53 2021-04-03 22:28:52 DM79OX > DM79HV 30.2 miles 261° 2021-04-03 22:18:45
W0ARP-3 2 2021-04-03 11:47:29 2021-04-03 11:47:59 DM79JQ > DM79QL 35.4 miles 115° 2021-04-03 11:47:29
N0AUX-1 12 2021-04-03 12:14:35 2021-04-03 22:35:12 DN70OA > DM79KG 55.0 miles 196° 2021-04-03 22:35:12
AB0TJ 11 2021-04-03 08:17:16 2021-04-03 08:59:22 DM59NF > DM59SC 23.9 miles 114° 2021-04-03 08:17:16
W0UPS-15 4 2021-04-03 22:07:19 2021-04-03 22:32:20 DM79NU > DN70JN 49.2 miles 341° 2021-04-03 22:07:19
N0EDB-10 1 2021-04-03 22:13:08 2021-04-03 22:13:08 DM79NW > DM79LW 9.9 miles 279° 2021-04-03 22:13:08
N0XRX-1 4 2021-04-03 11:55:02 2021-04-03 15:24:14 DM79LT > DM79KT 4.8 miles 265° 2021-04-03 15:24:14
W0SCA-10 1 2021-04-03 11:23:34 2021-04-03 11:23:34 DM79DR > DM79ET 8.8 miles 20° 2021-04-03 11:23:34

Only position packets which were originated by the station are shown here. The range statistics show some extra long hops, because some digipeaters do not correctly add themselves to the digipeater path. Please check the raw packets.
About this site
This page shows real-time information collected from the Automatic Position Reporting System Internet network (APRS-IS). APRS is used by amateur (ham) radio operators to transmit real-time position information, weather data, telemetry and messages over the radio. A vehicle equipped with a GPS receiver, a VHF transmitter or HF transceiver and a small computer device called a tracker transmits it's location, speed and course in a small data packet, which is then received by a nearby iGate receiving site which forwards the packet on the Internet. Systems connected to the Internet can send information on the APRS-IS without a radio transmitter, or collect and display information transmitted anywhere in the world.
User guide · FAQ · Blog · Discussion group · Linking to aprs.fi · AIS sites · Service status · Database statistics · Advertising on aprs.fi · Technical details · API · Change log · Planned changes · Credits and thanks · Terms Of Service · iPhone/iPad APRS